Time;durP1;ratioP1;P1;durP2;ratioP2;P2;SDS_P1;SDS_P2;PMS_P1;PMS_P2;Temp;Humidity;BMP_temperature;BMP_pressure;BME280_temperature;BME280_humidity;BME280_pressure;Samples;Min_cycle;Max_cycle;Signal;HPM_P1;HPM_P2
2022/07/12 00:00:54;;;;;;;9.15;4.95;;;18.90;99.90;;;;;;5051857;28;20029;-78
2022/07/12 00:03:20;;;;;;;7.00;4.88;;;18.90;99.90;;;;;;5046477;28;20035;-78
2022/07/12 00:05:45;;;;;;;6.50;4.18;;;18.80;99.90;;;;;;5036338;28;20406;-80
2022/07/12 00:08:11;;;;;;;5.97;4.40;;;18.80;99.90;;;;;;5048531;28;20428;-79
2022/07/12 00:10:36;;;;;;;7.60;4.43;;;18.80;99.90;;;;;;5035233;28;20022;-78
2022/07/12 00:13:03;;;;;;;5.95;4.60;;;18.70;99.90;;;;;;5041231;28;20362;-79
2022/07/12 00:15:29;;;;;;;7.05;4.40;;;18.70;99.90;;;;;;5052043;28;20033;-79
2022/07/12 00:17:55;;;;;;;5.22;4.20;;;18.70;99.90;;;;;;5051426;28;20025;-79
2022/07/12 00:20:21;;;;;;;9.00;4.70;;;18.70;99.90;;;;;;5052771;28;20108;-78
2022/07/12 00:22:47;;;;;;;4.93;4.18;;;18.70;99.90;;;;;;5050215;28;20024;-78
2022/07/12 00:25:13;;;;;;;7.50;4.22;;;18.60;99.90;;;;;;5038344;28;20131;-79
2022/07/12 00:27:40;;;;;;;7.30;3.83;;;18.60;99.90;;;;;;5048628;28;20021;-79
2022/07/12 00:30:07;;;;;;;5.25;3.60;;;18.60;99.90;;;;;;5046933;28;20021;-79
2022/07/12 00:32:33;;;;;;;6.45;3.80;;;18.60;99.90;;;;;;5052020;28;20029;-79
2022/07/12 00:34:59;;;;;;;7.15;3.78;;;18.60;99.90;;;;;;5045682;28;20055;-79
2022/07/12 00:37:25;;;;;;;3.95;3.55;;;18.50;99.90;;;;;;5045203;28;20499;-78
2022/07/12 00:39:51;;;;;;;7.68;3.55;;;18.50;99.90;;;;;;5046884;28;20108;-79
2022/07/12 00:42:17;;;;;;;4.35;3.60;;;18.50;99.90;;;;;;5044954;28;20052;-79
2022/07/12 00:44:43;;;;;;;5.97;3.40;;;18.50;99.90;;;;;;5052098;28;20017;-79
2022/07/12 00:47:26;;;;;;;5.20;3.78;;;18.40;99.90;;;;;;5052836;28;20027;-79
2022/07/12 00:49:52;;;;;;;4.55;3.53;;;18.40;99.90;;;;;;5052102;28;20021;-78
2022/07/12 00:52:18;;;;;;;5.25;3.30;;;18.40;99.90;;;;;;5052715;28;20025;-79
2022/07/12 00:54:44;;;;;;;4.95;3.63;;;18.40;99.90;;;;;;5049969;28;20059;-79
2022/07/12 00:57:09;;;;;;;4.43;3.90;;;18.30;99.90;;;;;;5053028;28;20057;-78
2022/07/12 00:59:35;;;;;;;4.57;3.72;;;18.30;99.90;;;;;;5046497;28;20053;-79
2022/07/12 01:02:01;;;;;;;6.80;4.50;;;18.30;99.90;;;;;;5042098;28;20028;-78
2022/07/12 01:04:27;;;;;;;4.70;3.97;;;18.30;99.90;;;;;;5049364;28;20021;-80
2022/07/12 01:06:54;;;;;;;4.65;4.00;;;18.30;99.90;;;;;;5052058;28;20017;-78
2022/07/12 01:09:19;;;;;;;7.70;4.05;;;18.30;99.90;;;;;;5048199;28;20052;-78
2022/07/12 01:11:45;;;;;;;5.22;3.97;;;18.30;99.90;;;;;;5051978;28;20067;-78
2022/07/12 01:14:13;;;;;;;5.22;3.70;;;18.20;99.90;;;;;;5047194;28;20071;-78
2022/07/12 01:16:39;;;;;;;5.18;4.45;;;18.20;99.90;;;;;;5041222;28;20052;-79
2022/07/12 01:19:06;;;;;;;6.95;4.50;;;18.20;99.90;;;;;;5052332;28;20021;-79
2022/07/12 01:21:37;;;;;;;5.25;4.38;;;18.20;99.90;;;;;;5033145;28;20022;-79
2022/07/12 01:24:06;;;;;;;5.53;3.95;;;18.20;99.90;;;;;;5043975;28;20067;-78
2022/07/12 01:26:32;;;;;;;4.35;3.83;;;18.20;99.90;;;;;;5052623;28;20547;-79
2022/07/12 01:28:58;;;;;;;5.45;4.10;;;18.10;99.90;;;;;;5051892;28;20032;-78
2022/07/12 01:31:24;;;;;;;4.45;4.03;;;18.10;99.90;;;;;;5044930;28;20094;-80
2022/07/12 01:33:50;;;;;;;6.00;4.10;;;18.10;99.90;;;;;;5051169;28;20033;-79
2022/07/12 01:36:16;;;;;;;5.15;4.10;;;18.10;99.90;;;;;;5038143;28;20021;-78
2022/07/12 01:38:42;;;;;;;4.88;4.03;;;18.00;99.90;;;;;;5050697;28;20017;-78
2022/07/12 01:41:08;;;;;;;4.30;3.80;;;18.00;99.90;;;;;;5048238;28;20020;-79
2022/07/12 01:43:34;;;;;;;5.53;4.13;;;18.00;99.90;;;;;;5048888;28;20033;-78
2022/07/12 01:45:59;;;;;;;4.30;3.90;;;18.00;99.90;;;;;;5040613;28;20049;-78
2022/07/12 01:48:25;;;;;;;4.82;3.90;;;17.90;99.90;;;;;;5051976;28;20025;-79
2022/07/12 01:50:50;;;;;;;5.40;3.67;;;17.90;99.90;;;;;;5050203;28;20116;-79
2022/07/12 01:53:16;;;;;;;5.20;4.28;;;17.80;99.90;;;;;;5041144;28;20437;-78
2022/07/12 01:55:42;;;;;;;5.05;4.22;;;17.80;99.90;;;;;;5041809;28;20396;-79
2022/07/12 01:58:08;;;;;;;5.50;4.07;;;17.80;99.90;;;;;;5045905;28;20032;-80
2022/07/12 02:00:34;;;;;;;5.25;3.97;;;17.80;99.90;;;;;;5047736;28;20025;-78
2022/07/12 02:03:00;;;;;;;5.75;4.60;;;17.70;99.90;;;;;;5047471;28;20477;-78
2022/07/12 02:05:25;;;;;;;6.70;4.15;;;17.70;99.90;;;;;;5045703;28;20029;-80
2022/07/12 02:07:52;;;;;;;5.43;4.10;;;17.70;99.90;;;;;;5040188;28;20033;-79
2022/07/12 02:10:18;;;;;;;5.47;4.18;;;17.60;99.90;;;;;;5045527;28;20101;-78
2022/07/12 02:12:43;;;;;;;6.95;4.25;;;17.60;99.90;;;;;;5040262;28;20025;-78
2022/07/12 02:15:10;;;;;;;7.13;4.45;;;17.60;99.90;;;;;;5050296;28;20132;-79
2022/07/12 02:17:36;;;;;;;5.03;3.78;;;17.50;99.90;;;;;;5044863;28;20096;-78
2022/07/12 02:20:01;;;;;;;5.55;4.03;;;17.50;99.90;;;;;;5036283;28;20060;-78
2022/07/12 02:22:27;;;;;;;5.47;3.63;;;17.50;99.90;;;;;;5041657;28;20441;-79
2022/07/12 02:24:52;;;;;;;3.90;3.35;;;17.50;99.90;;;;;;5043476;28;20049;-79
2022/07/12 02:27:18;;;;;;;4.10;3.60;;;17.40;99.90;;;;;;5047615;28;20028;-78
2022/07/12 02:29:43;;;;;;;6.50;4.25;;;17.40;99.90;;;;;;5040138;28;20025;-79
2022/07/12 02:32:09;;;;;;;4.22;3.80;;;17.40;99.90;;;;;;5042883;28;20535;-79
2022/07/12 02:34:35;;;;;;;6.55;4.18;;;17.40;99.90;;;;;;5050137;28;20078;-80
2022/07/12 02:37:00;;;;;;;6.75;4.18;;;17.40;99.90;;;;;;5040924;28;20042;-79
2022/07/12 02:39:26;;;;;;;5.75;4.30;;;17.30;99.90;;;;;;5047827;28;20017;-80
2022/07/12 02:41:51;;;;;;;4.55;3.90;;;17.30;99.90;;;;;;5036638;28;20028;-79
2022/07/12 02:44:17;;;;;;;6.70;4.10;;;17.30;99.90;;;;;;5045688;28;20040;-78
2022/07/12 02:46:43;;;;;;;7.32;4.57;;;17.30;99.90;;;;;;5031450;28;20014;-78
2022/07/12 02:49:08;;;;;;;5.85;4.47;;;17.20;99.90;;;;;;5044986;28;20025;-78
2022/07/12 02:51:34;;;;;;;7.30;5.05;;;17.30;99.90;;;;;;5049651;28;20033;-79
2022/07/12 02:53:59;;;;;;;8.05;5.10;;;17.20;99.90;;;;;;5043726;28;20036;-79
2022/07/12 02:56:26;;;;;;;5.70;4.35;;;17.20;99.90;;;;;;5037892;28;20048;-80
2022/07/12 02:58:51;;;;;;;5.53;4.30;;;17.20;99.90;;;;;;5045152;28;20533;-79
2022/07/12 03:01:17;;;;;;;6.15;4.10;;;17.20;99.90;;;;;;5043560;28;20029;-78
2022/07/12 03:03:43;;;;;;;7.20;4.35;;;17.10;99.90;;;;;;5050414;28;20036;-79
2022/07/12 03:06:08;;;;;;;6.70;4.40;;;17.10;99.90;;;;;;5049118;28;20031;-80
2022/07/12 03:08:34;;;;;;;6.72;4.47;;;17.10;99.90;;;;;;5048955;28;20511;-79
2022/07/12 03:10:59;;;;;;;5.88;4.75;;;17.10;99.90;;;;;;5050349;28;20079;-79
2022/07/12 03:13:25;;;;;;;6.90;4.53;;;17.10;99.90;;;;;;5050553;28;20037;-80
2022/07/12 03:15:51;;;;;;;5.15;4.50;;;17.00;99.90;;;;;;5045175;28;20101;-80
2022/07/12 03:18:17;;;;;;;5.25;4.25;;;17.00;99.90;;;;;;5037531;28;20017;-78
2022/07/12 03:20:43;;;;;;;5.75;4.28;;;17.00;99.90;;;;;;5050534;28;20044;-79
2022/07/12 03:23:09;;;;;;;6.00;4.43;;;16.90;99.90;;;;;;5048901;28;20425;-79
2022/07/12 03:25:35;;;;;;;6.32;4.80;;;16.90;99.90;;;;;;5050038;28;20057;-80
2022/07/12 03:28:01;;;;;;;6.80;5.10;;;16.90;99.90;;;;;;5050586;28;20013;-80
2022/07/12 03:30:27;;;;;;;7.20;4.63;;;16.90;99.90;;;;;;5047645;28;20029;-79
2022/07/12 03:32:53;;;;;;;6.60;4.85;;;16.90;99.90;;;;;;5040030;28;20072;-79
2022/07/12 03:35:18;;;;;;;7.95;5.25;;;16.90;99.90;;;;;;5032365;28;20026;-80
2022/07/12 03:37:45;;;;;;;6.40;4.72;;;16.90;99.90;;;;;;5041808;28;20037;-79
2022/07/12 03:40:12;;;;;;;6.00;5.13;;;16.80;99.90;;;;;;5045550;28;20108;-79
2022/07/12 03:42:38;;;;;;;6.78;4.85;;;16.80;99.90;;;;;;5043665;28;20033;-79
2022/07/12 03:45:04;;;;;;;6.50;4.75;;;16.80;99.90;;;;;;5037966;28;20017;-79
2022/07/12 03:47:31;;;;;;;6.05;5.22;;;16.80;99.90;;;;;;5031081;28;20029;-78
2022/07/12 03:49:57;;;;;;;7.05;5.55;;;16.80;99.90;;;;;;5044272;28;20017;-79
2022/07/12 03:52:23;;;;;;;8.27;5.75;;;16.80;99.90;;;;;;5037468;28;20048;-79
2022/07/12 03:54:48;;;;;;;6.25;5.32;;;16.80;99.90;;;;;;5038621;28;20494;-80
2022/07/12 03:57:15;;;;;;;6.88;5.50;;;16.80;99.90;;;;;;5038748;28;20194;-78
2022/07/12 03:59:41;;;;;;;6.20;5.05;;;16.80;99.90;;;;;;5039161;28;20025;-79
2022/07/12 04:02:07;;;;;;;7.68;4.70;;;16.80;99.90;;;;;;5038696;28;20397;-78
2022/07/12 04:04:33;;;;;;;6.55;4.95;;;16.80;99.90;;;;;;5048395;28;20036;-80
2022/07/12 04:06:58;;;;;;;8.25;6.10;;;16.80;99.90;;;;;;5048354;28;20017;-79
2022/07/12 04:09:24;;;;;;;7.88;5.97;;;16.80;99.90;;;;;;5031478;28;20421;-79
2022/07/12 04:11:49;;;;;;;6.85;5.10;;;16.80;99.90;;;;;;5030074;28;20397;-80
2022/07/12 04:14:15;;;;;;;6.70;5.53;;;16.80;99.90;;;;;;5042993;28;20389;-79
2022/07/12 04:16:41;;;;;;;6.18;5.40;;;16.90;99.90;;;;;;5038859;28;20192;-79
2022/07/12 04:19:08;;;;;;;8.40;5.82;;;16.90;99.90;;;;;;5036567;28;20037;-81
2022/07/12 04:21:35;;;;;;;6.85;5.55;;;16.90;99.90;;;;;;5039952;28;20436;-79
2022/07/12 04:24:00;;;;;;;9.35;6.05;;;17.00;99.90;;;;;;5033825;28;20044;-79
2022/07/12 04:26:26;;;;;;;7.43;5.53;;;17.00;99.90;;;;;;5049886;28;20047;-77
2022/07/12 04:28:51;;;;;;;9.57;6.22;;;17.00;99.90;;;;;;5048433;28;20029;-77
2022/07/12 04:31:17;;;;;;;9.52;5.85;;;17.10;99.90;;;;;;5047570;28;20078;-77
2022/07/12 04:33:42;;;;;;;8.02;5.90;;;17.10;99.90;;;;;;5051340;28;20029;-77
2022/07/12 04:36:08;;;;;;;9.05;6.50;;;17.20;99.90;;;;;;5051360;28;20033;-77
2022/07/12 04:38:33;;;;;;;8.38;6.40;;;17.20;99.90;;;;;;5053333;28;20187;-77
2022/07/12 04:40:59;;;;;;;11.18;5.97;;;17.30;99.90;;;;;;5053157;28;20029;-78
2022/07/12 04:43:25;;;;;;;7.45;6.10;;;17.40;99.90;;;;;;5036120;28;20033;-78
2022/07/12 04:45:51;;;;;;;9.63;5.60;;;17.40;99.90;;;;;;5031984;28;20203;-78
2022/07/12 04:48:16;;;;;;;6.93;5.70;;;17.50;99.90;;;;;;5032153;28;20049;-77
2022/07/12 04:50:42;;;;;;;9.95;6.28;;;17.50;99.90;;;;;;5034778;28;20068;-78
2022/07/12 04:53:08;;;;;;;7.70;6.40;;;17.60;99.90;;;;;;5032279;28;20029;-77
2022/07/12 04:55:34;;;;;;;9.50;6.53;;;17.60;99.90;;;;;;5032896;28;20029;-79
2022/07/12 04:57:59;;;;;;;10.82;6.68;;;17.70;99.90;;;;;;5032780;28;20017;-78
2022/07/12 05:00:25;;;;;;;11.75;6.63;;;17.70;99.90;;;;;;5037846;28;20044;-78
2022/07/12 05:02:50;;;;;;;9.40;7.47;;;17.80;99.90;;;;;;5039439;28;20599;-78
2022/07/12 05:05:16;;;;;;;9.45;7.22;;;17.80;99.90;;;;;;5036974;28;20025;-78
2022/07/12 05:07:42;;;;;;;8.07;7.05;;;17.90;99.90;;;;;;5044790;28;20033;-78
2022/07/12 05:10:08;;;;;;;13.15;7.28;;;17.90;99.90;;;;;;5046259;28;20036;-78
2022/07/12 05:12:37;;;;;;;10.27;7.55;;;18.00;99.90;;;;;;5051018;28;20018;-78
2022/07/12 05:15:07;;;;;;;10.93;7.65;;;18.00;99.90;;;;;;5051534;28;20025;-78
2022/07/12 05:17:33;;;;;;;11.23;7.30;;;18.00;99.90;;;;;;5045898;28;20025;-79
2022/07/12 05:19:59;;;;;;;13.05;7.75;;;18.10;99.90;;;;;;5041267;28;20100;-80
2022/07/12 05:22:24;;;;;;;9.48;7.95;;;18.10;99.90;;;;;;5051540;28;20104;-80
2022/07/12 05:24:50;;;;;;;10.52;8.38;;;18.10;99.90;;;;;;5047801;28;20053;-80
2022/07/12 05:27:15;;;;;;;12.82;9.00;;;18.20;99.90;;;;;;5048763;28;20033;-80
2022/07/12 05:29:41;;;;;;;11.85;8.68;;;18.20;99.90;;;;;;5041276;28;20017;-79
2022/07/12 05:32:07;;;;;;;10.20;8.35;;;18.20;99.90;;;;;;5043962;28;20029;-79
2022/07/12 05:34:33;;;;;;;12.70;8.50;;;18.30;99.90;;;;;;5035959;28;20030;-80
2022/07/12 05:36:59;;;;;;;10.80;8.40;;;18.30;99.90;;;;;;5038279;28;20116;-79
2022/07/12 05:39:24;;;;;;;14.00;9.50;;;18.40;99.90;;;;;;5031591;28;20056;-78
2022/07/12 05:41:50;;;;;;;11.10;8.98;;;18.40;99.90;;;;;;5038150;28;20103;-78
2022/07/12 05:44:17;;;;;;;10.65;9.38;;;18.50;99.90;;;;;;5037294;28;20037;-78
2022/07/12 05:46:43;;;;;;;10.93;8.77;;;18.50;99.90;;;;;;5035256;28;20021;-78
2022/07/12 05:49:08;;;;;;;11.00;8.77;;;18.60;99.90;;;;;;5032718;28;20021;-78
2022/07/12 05:54:18;;;;;;;12.40;8.35;;;18.70;99.90;;;;;;5034060;28;20102;-78
2022/07/12 05:56:44;;;;;;;11.10;8.10;;;18.70;99.90;;;;;;5032563;28;20034;-80
2022/07/12 05:59:09;;;;;;;12.10;9.20;;;18.80;99.90;;;;;;5034846;28;20064;-77
2022/07/12 06:01:35;;;;;;;15.13;9.70;;;18.80;99.90;;;;;;5030919;28;20017;-79
2022/07/12 06:04:01;;;;;;;16.45;9.35;;;18.80;99.90;;;;;;5034951;28;20113;-79
2022/07/12 06:06:27;;;;;;;11.23;9.05;;;18.90;99.90;;;;;;5039426;28;20370;-79
2022/07/12 06:08:53;;;;;;;13.88;8.75;;;18.90;99.90;;;;;;5039042;28;20048;-78
2022/07/12 06:11:18;;;;;;;12.52;9.18;;;19.00;99.90;;;;;;5033938;28;20095;-78
2022/07/12 06:13:44;;;;;;;18.92;9.25;;;19.00;99.90;;;;;;5032631;28;20037;-78
2022/07/12 06:16:11;;;;;;;19.73;9.60;;;19.00;99.90;;;;;;5038205;28;20670;-79
2022/07/12 06:18:37;;;;;;;15.23;8.43;;;19.10;99.90;;;;;;5037492;28;20028;-81
2022/07/12 06:21:03;;;;;;;17.58;8.65;;;19.10;99.90;;;;;;5033703;28;20028;-78
2022/07/12 06:23:29;;;;;;;16.05;9.07;;;19.20;99.90;;;;;;5037068;28;20033;-79
2022/07/12 06:25:55;;;;;;;12.60;7.90;;;19.20;99.90;;;;;;5039651;28;20500;-79
2022/07/12 06:28:21;;;;;;;18.50;8.70;;;19.30;99.90;;;;;;5031629;28;20413;-80
2022/07/12 06:30:46;;;;;;;11.00;7.13;;;19.30;99.90;;;;;;5044402;28;20025;-77
2022/07/12 06:33:12;;;;;;;12.93;7.80;;;19.40;99.90;;;;;;5032965;28;20469;-78
2022/07/12 06:35:37;;;;;;;14.93;7.95;;;19.40;99.90;;;;;;5040239;28;20497;-77
2022/07/12 06:38:03;;;;;;;16.88;7.53;;;19.50;99.90;;;;;;5033820;28;20021;-77
2022/07/12 06:40:29;;;;;;;14.88;7.82;;;19.60;99.90;;;;;;5030987;28;20469;-77
2022/07/12 06:42:55;;;;;;;18.77;7.80;;;19.60;99.90;;;;;;5030390;28;20056;-77
2022/07/12 06:45:20;;;;;;;12.63;8.05;;;19.70;99.90;;;;;;5035419;28;20043;-79
2022/07/12 06:47:46;;;;;;;13.07;8.25;;;19.80;99.90;;;;;;5033917;28;20099;-78
2022/07/12 06:50:12;;;;;;;11.52;7.45;;;19.80;99.90;;;;;;5030785;28;20136;-78
2022/07/12 06:52:37;;;;;;;11.05;7.93;;;19.90;99.90;;;;;;5035326;28;20163;-78
2022/07/12 06:55:03;;;;;;;9.18;7.60;;;20.00;99.90;;;;;;5030388;28;20025;-78
2022/07/12 06:57:30;;;;;;;10.80;7.47;;;20.10;99.90;;;;;;5031506;28;20029;-78
2022/07/12 06:59:56;;;;;;;14.50;7.22;;;20.20;99.90;;;;;;5033102;28;20108;-78
2022/07/12 07:02:22;;;;;;;12.38;7.80;;;20.20;99.90;;;;;;5033336;28;20497;-77
2022/07/12 07:04:48;;;;;;;15.93;7.43;;;20.30;99.90;;;;;;5030557;28;20032;-78
2022/07/12 07:07:13;;;;;;;10.48;7.60;;;20.40;99.90;;;;;;5040487;28;20402;-78
2022/07/12 07:09:39;;;;;;;11.32;7.28;;;20.50;99.90;;;;;;5038611;28;20021;-78
2022/07/12 07:12:05;;;;;;;11.88;6.72;;;20.60;99.90;;;;;;5038664;28;20505;-78
2022/07/12 07:14:31;;;;;;;12.20;6.80;;;20.70;99.90;;;;;;5038674;28;20151;-78
2022/07/12 07:16:56;;;;;;;9.85;5.97;;;20.80;99.90;;;;;;5033854;28;20040;-78
2022/07/12 07:19:26;;;;;;;11.30;5.85;;;21.00;99.90;;;;;;5042249;28;20629;-78
2022/07/12 07:21:52;;;;;;;11.65;5.70;;;21.10;99.90;;;;;;5032316;28;20033;-78
2022/07/12 07:24:18;;;;;;;8.60;5.50;;;21.20;99.90;;;;;;5032884;28;20049;-78
2022/07/12 07:26:43;;;;;;;10.50;5.57;;;21.30;99.90;;;;;;5034292;28;20029;-78
2022/07/12 07:31:53;;;;;;;9.00;5.28;;;21.50;99.90;;;;;;5033101;28;20071;-78
2022/07/12 07:34:19;;;;;;;8.50;5.53;;;21.60;99.90;;;;;;5033584;28;20049;-77
2022/07/12 07:36:44;;;;;;;11.13;5.97;;;21.70;99.90;;;;;;5037637;28;20029;-78
2022/07/12 07:39:12;;;;;;;7.47;6.57;;;21.80;99.90;;;;;;5036931;28;20029;-78
2022/07/12 07:41:37;;;;;;;11.07;6.70;;;21.70;99.90;;;;;;5034408;28;20013;-78
2022/07/12 07:44:03;;;;;;;8.85;6.03;;;21.80;99.90;;;;;;5046301;28;20041;-78
2022/07/12 07:46:29;;;;;;;7.95;6.15;;;21.80;99.90;;;;;;5039413;28;20022;-78
2022/07/12 07:48:54;;;;;;;8.95;5.88;;;21.80;99.90;;;;;;5030230;28;20074;-78
2022/07/12 07:51:20;;;;;;;8.75;6.75;;;21.90;99.90;;;;;;5030099;28;20482;-78
2022/07/12 07:53:45;;;;;;;9.45;6.40;;;21.80;99.90;;;;;;5029967;28;20036;-78
2022/07/12 07:56:11;;;;;;;6.90;6.18;;;21.80;99.90;;;;;;5030935;28;20021;-78
2022/07/12 07:58:37;;;;;;;14.80;8.18;;;21.90;99.90;;;;;;5041508;28;20026;-78
2022/07/12 08:01:02;;;;;;;11.98;8.25;;;21.90;99.90;;;;;;5043600;28;20025;-78
2022/07/12 08:03:28;;;;;;;9.55;6.55;;;21.90;99.90;;;;;;5036346;28;20075;-78
2022/07/12 08:05:57;;;;;;;8.40;6.38;;;21.90;99.90;;;;;;5049638;28;20485;-78
2022/07/12 08:08:23;;;;;;;8.95;6.45;;;22.00;99.90;;;;;;5046133;28;20053;-78
2022/07/12 08:10:52;;;;;;;9.27;6.90;;;22.10;99.90;;;;;;5039827;28;20122;-78
2022/07/12 08:13:18;;;;;;;9.73;6.28;;;22.10;99.90;;;;;;5033643;28;20018;-78
2022/07/12 08:15:43;;;;;;;9.85;6.97;;;22.20;99.90;;;;;;5044065;28;20509;-78
2022/07/12 08:18:09;;;;;;;10.52;7.15;;;22.20;99.90;;;;;;5038893;28;20017;-79
2022/07/12 08:20:35;;;;;;;12.25;6.28;;;22.20;99.90;;;;;;5033404;28;20044;-78
2022/07/12 08:23:00;;;;;;;10.95;5.70;;;22.20;99.90;;;;;;5033496;28;20029;-78
2022/07/12 08:25:26;;;;;;;7.57;5.43;;;22.30;99.90;;;;;;5043352;28;20045;-78
2022/07/12 08:27:51;;;;;;;8.02;5.43;;;22.50;99.90;;;;;;5033972;28;20401;-78
2022/07/12 08:30:17;;;;;;;9.75;5.63;;;22.70;99.90;;;;;;5036029;28;20053;-78
2022/07/12 08:32:44;;;;;;;8.07;5.40;;;22.90;99.90;;;;;;5033282;28;20073;-78
2022/07/12 08:35:10;;;;;;;9.70;5.53;;;23.20;99.90;;;;;;5033031;28;20022;-78
2022/07/12 08:37:36;;;;;;;10.15;4.75;;;23.40;99.90;;;;;;5031511;28;20036;-78
2022/07/12 08:40:02;;;;;;;9.02;4.55;;;23.60;99.90;;;;;;5039608;28;20423;-79
2022/07/12 08:42:27;;;;;;;8.80;4.85;;;23.80;99.90;;;;;;5035334;28;20375;-78
2022/07/12 08:44:57;;;;;;;7.65;4.97;;;24.10;99.90;;;;;;5035134;28;20033;-80
2022/07/12 08:47:24;;;;;;;8.25;4.97;;;24.40;99.90;;;;;;5040807;28;20024;-78
2022/07/12 08:50:17;;;;;;;9.23;5.22;;;24.50;99.90;;;;;;5039368;28;20025;-77
2022/07/12 08:52:45;;;;;;;11.32;4.35;;;24.70;99.90;;;;;;5042113;28;20037;-78
2022/07/12 08:55:31;;;;;;;9.25;4.63;;;24.90;99.90;;;;;;5036376;28;20019;-78
2022/07/12 08:57:59;;;;;;;11.25;4.97;;;25.00;99.90;;;;;;5033242;28;20080;-79
2022/07/12 09:00:26;;;;;;;11.60;4.55;;;25.00;99.90;;;;;;5033034;28;20493;-78
2022/07/12 09:02:52;;;;;;;7.18;5.03;;;25.20;99.90;;;;;;5032944;28;20030;-79
2022/07/12 09:05:27;;;;;;;7.35;5.10;;;25.20;99.90;;;;;;5051546;28;20036;-78
2022/07/12 09:08:06;;;;;;;6.97;4.68;;;25.30;99.90;;;;;;5045975;28;20064;-78
2022/07/12 09:10:33;;;;;;;4.00;3.60;;;25.30;99.90;;;;;;5050460;28;20025;-78
2022/07/12 09:12:59;;;;;;;7.97;6.20;;;25.30;99.80;;;;;;5038989;28;20092;-78
2022/07/12 09:15:26;;;;;;;8.20;4.75;;;25.40;99.40;;;;;;5034406;28;20137;-79
2022/07/12 09:18:01;;;;;;;7.63;4.22;;;25.40;99.30;;;;;;5032509;28;20485;-78
2022/07/12 09:20:38;;;;;;;9.68;4.10;;;25.50;99.00;;;;;;5033159;28;20052;-78
2022/07/12 09:23:06;;;;;;;5.70;4.03;;;25.60;98.70;;;;;;5036307;28;20426;-78
2022/07/12 09:25:32;;;;;;;5.22;4.18;;;25.70;98.20;;;;;;5036190;28;20491;-78
2022/07/12 09:27:59;;;;;;;5.03;3.95;;;25.80;97.20;;;;;;5039034;28;20037;-78
2022/07/12 09:30:27;;;;;;;5.50;4.70;;;25.90;96.40;;;;;;5033404;28;20288;-78
2022/07/12 09:36:10;;;;;;;12.55;4.78;;;26.10;95.20;;;;;;5032184;28;20508;-78
2022/07/12 09:38:54;;;;;;;7.32;5.20;;;26.10;95.30;;;;;;5037102;28;20033;-77
2022/07/12 09:41:23;;;;;;;6.95;4.90;;;26.10;95.00;;;;;;5041898;28;20037;-76
2022/07/12 09:43:50;;;;;;;7.75;6.30;;;26.20;94.80;;;;;;5033414;28;20095;-77
2022/07/12 09:46:17;;;;;;;11.10;5.43;;;26.20;94.70;;;;;;5033148;28;20064;-77
2022/07/12 09:48:44;;;;;;;9.48;6.38;;;26.30;94.30;;;;;;5034338;28;20014;-77
2022/07/12 09:51:13;;;;;;;17.23;6.80;;;26.30;94.10;;;;;;5031784;28;20477;-77
2022/07/12 09:53:46;;;;;;;8.60;5.10;;;26.40;94.00;;;;;;5031854;28;20547;-78
2022/07/12 09:56:13;;;;;;;9.63;5.90;;;26.50;93.80;;;;;;5031977;28;20034;-77
2022/07/12 09:58:46;;;;;;;8.98;5.75;;;26.70;93.30;;;;;;5036483;28;20017;-77
2022/07/12 10:01:13;;;;;;;8.70;5.57;;;26.80;93.00;;;;;;5031863;28;20354;-78
2022/07/12 10:03:41;;;;;;;9.70;6.05;;;26.90;92.50;;;;;;5032787;28;20022;-78
2022/07/12 10:06:09;;;;;;;8.40;5.60;;;26.90;91.80;;;;;;5044083;28;20034;-79
2022/07/12 10:08:35;;;;;;;10.05;5.32;;;27.00;91.90;;;;;;5045570;28;20404;-78
2022/07/12 10:11:01;;;;;;;11.43;5.25;;;27.10;91.00;;;;;;5043050;28;20423;-78
2022/07/12 10:13:27;;;;;;;10.30;4.60;;;27.20;90.40;;;;;;5030752;28;20101;-79
2022/07/12 10:15:59;;;;;;;7.47;3.97;;;27.30;90.00;;;;;;5033652;28;20111;-78
2022/07/12 10:18:25;;;;;;;6.88;4.82;;;27.40;90.10;;;;;;5033076;28;20029;-78
2022/07/12 10:20:50;;;;;;;9.40;4.85;;;27.60;89.00;;;;;;5032223;28;20374;-78
2022/07/12 10:23:19;;;;;;;9.30;5.85;;;27.70;87.30;;;;;;5035632;28;20067;-77
2022/07/12 10:25:48;;;;;;;8.45;5.13;;;27.90;85.60;;;;;;5039935;28;20091;-78
2022/07/12 10:28:13;;;;;;;8.40;5.55;;;28.00;84.70;;;;;;5031482;28;20021;-78
2022/07/12 10:30:44;;;;;;;6.85;4.60;;;28.10;82.90;;;;;;5032567;28;20034;-78
2022/07/12 10:33:17;;;;;;;7.95;5.07;;;28.20;81.80;;;;;;5034326;28;20029;-77
2022/07/12 10:35:59;;;;;;;6.80;4.00;;;28.20;80.60;;;;;;5031281;28;20017;-77
2022/07/12 10:38:25;;;;;;;7.65;4.80;;;28.40;80.60;;;;;;5034632;28;20021;-77
2022/07/12 10:40:51;;;;;;;5.70;4.30;;;28.50;78.50;;;;;;5036324;28;20025;-77
2022/07/12 10:44:04;;;;;;;8.35;4.00;;;28.50;77.30;;;;;;5035776;28;20022;-77
2022/07/12 10:46:15;;;;;;;9.07;4.10;;;28.60;76.30;;;;;;5040917;28;20448;-77
2022/07/12 10:48:42;;;;;;;7.43;4.53;;;28.80;75.00;;;;;;5030718;28;20087;-77
2022/07/12 10:51:21;;;;;;;6.43;3.53;;;28.90;73.20;;;;;;5031066;28;20017;-77
2022/07/12 10:53:50;;;;;;;5.07;4.30;;;29.00;71.30;;;;;;5030720;28;20079;-77
2022/07/12 10:56:19;;;;;;;4.95;3.90;;;29.10;71.40;;;;;;5030520;28;20376;-77
2022/07/12 10:58:47;;;;;;;6.03;4.00;;;29.10;71.10;;;;;;5037650;28;20429;-77
2022/07/12 11:01:18;;;;;;;7.72;4.47;;;29.20;68.90;;;;;;5029636;28;20025;-77
2022/07/12 11:03:55;;;;;;;5.63;3.00;;;29.30;68.20;;;;;;5035786;28;20028;-77
2022/07/12 11:06:23;;;;;;;3.90;3.10;;;29.30;67.10;;;;;;5033592;28;20536;-77
2022/07/12 11:09:00;;;;;;;4.55;2.90;;;29.40;66.50;;;;;;5038189;28;20029;-77
2022/07/12 11:11:29;;;;;;;5.18;3.20;;;29.60;65.60;;;;;;5041512;28;20029;-76
2022/07/12 11:13:56;;;;;;;5.53;3.72;;;29.70;65.40;;;;;;5037816;28;20078;-77
2022/07/12 11:16:23;;;;;;;4.82;3.35;;;29.80;64.50;;;;;;5048053;28;20032;-77
2022/07/12 11:18:49;;;;;;;5.07;3.40;;;29.80;63.40;;;;;;5043085;28;20108;-77
2022/07/12 11:21:15;;;;;;;7.07;2.92;;;29.80;63.90;;;;;;5042943;28;20432;-76
2022/07/12 11:23:42;;;;;;;8.73;2.70;;;30.00;63.50;;;;;;5039146;28;20026;-77
2022/07/12 11:26:08;;;;;;;4.10;2.97;;;30.10;62.70;;;;;;5040410;28;20049;-77
2022/07/12 11:28:34;;;;;;;9.18;2.97;;;30.20;61.90;;;;;;5043939;28;20032;-77
2022/07/12 11:31:08;;;;;;;7.47;2.85;;;30.20;60.90;;;;;;5038561;28;20021;-76
2022/07/12 11:33:45;;;;;;;5.17;2.33;;;30.20;59.70;;;;;;5041058;28;20565;-77
2022/07/12 11:36:13;;;;;;;6.03;2.90;;;30.30;59.60;;;;;;5052967;28;20057;-77
2022/07/12 11:38:41;;;;;;;5.80;3.65;;;30.40;58.50;;;;;;5055117;28;20030;-77
2022/07/12 11:41:08;;;;;;;4.50;3.10;;;30.30;58.50;;;;;;5045390;28;20025;-77
2022/07/12 11:43:36;;;;;;;7.15;3.08;;;30.30;57.60;;;;;;5042000;28;20028;-78
2022/07/12 11:46:03;;;;;;;4.43;2.17;;;30.30;57.50;;;;;;5052729;28;20026;-78
2022/07/12 11:48:32;;;;;;;6.03;2.42;;;30.40;57.20;;;;;;5040895;28;20026;-76
2022/07/12 11:51:05;;;;;;;4.30;2.58;;;30.40;56.70;;;;;;5032624;28;20473;-77
2022/07/12 11:53:32;;;;;;;5.32;2.38;;;30.30;56.20;;;;;;5041377;28;20021;-76
2022/07/12 11:55:59;;;;;;;2.65;2.15;;;30.30;56.60;;;;;;5041811;28;20025;-78
2022/07/12 11:58:26;;;;;;;5.07;2.28;;;30.40;56.60;;;;;;5047369;28;20127;-79
2022/07/12 12:00:53;;;;;;;5.90;2.03;;;30.40;55.80;;;;;;5050928;28;20083;-78
2022/07/12 12:03:22;;;;;;;6.60;1.98;;;30.50;55.60;;;;;;5043293;28;20372;-78
2022/07/12 12:05:49;;;;;;;3.42;2.08;;;30.50;55.10;;;;;;5060152;28;20087;-77
2022/07/12 12:08:16;;;;;;;4.05;1.70;;;30.70;54.70;;;;;;5055202;28;20033;-77
2022/07/12 12:10:51;;;;;;;5.18;2.00;;;30.60;54.10;;;;;;5052711;28;20025;-78
2022/07/12 12:13:17;;;;;;;3.78;1.90;;;30.60;53.90;;;;;;5053687;28;20029;-78
2022/07/12 12:15:58;;;;;;;3.70;1.77;;;30.70;53.00;;;;;;5051237;28;20035;-78
2022/07/12 12:18:35;;;;;;;3.58;1.88;;;30.80;52.40;;;;;;5049364;28;20037;-78
2022/07/12 12:21:12;;;;;;;5.03;1.83;;;31.00;52.60;;;;;;5057513;28;20025;-78
2022/07/12 12:23:40;;;;;;;4.82;1.73;;;31.10;51.50;;;;;;5057779;28;20040;-78
2022/07/12 12:26:17;;;;;;;6.22;1.92;;;31.20;50.30;;;;;;5046385;28;20099;-78
2022/07/12 12:28:45;;;;;;;6.20;1.92;;;31.10;49.00;;;;;;5036598;28;20022;-78
2022/07/12 12:31:13;;;;;;;5.40;1.80;;;31.10;49.10;;;;;;5036054;28;20091;-77
2022/07/12 12:33:41;;;;;;;5.10;1.73;;;31.30;49.20;;;;;;5036598;28;20458;-78
2022/07/12 12:36:22;;;;;;;4.35;1.67;;;31.40;48.00;;;;;;5044305;28;20033;-77
2022/07/12 12:38:52;;;;;;;2.13;1.30;;;31.30;46.60;;;;;;5042655;28;20036;-77
2022/07/12 12:41:22;;;;;;;2.67;1.17;;;31.10;46.00;;;;;;5041412;28;20026;-77
2022/07/12 12:43:55;;;;;;;3.65;1.13;;;30.90;45.70;;;;;;5040118;28;20393;-77
2022/07/12 12:46:21;;;;;;;2.92;1.40;;;30.80;45.40;;;;;;5044800;28;20021;-76
2022/07/12 12:48:48;;;;;;;1.80;1.58;;;30.80;45.60;;;;;;5047991;28;20145;-77
2022/07/12 12:51:14;;;;;;;2.13;1.20;;;30.80;46.10;;;;;;5042235;28;20453;-77
2022/07/12 12:53:41;;;;;;;1.48;1.13;;;30.60;45.40;;;;;;5047305;28;20025;-77